sensor_id;sensor_type;location;lat;lon;timestamp;temperature;humidity
9658;DHT22;4867;48.112;11.622;2023-01-28T00:01:25;-0.30;99.90
9658;DHT22;4867;48.112;11.622;2023-01-28T00:03:52;-0.30;99.90
9658;DHT22;4867;48.112;11.622;2023-01-28T00:06:19;-0.20;99.90
9658;DHT22;4867;48.112;11.622;2023-01-28T00:08:47;-0.20;99.90
9658;DHT22;4867;48.112;11.622;2023-01-28T00:11:14;-0.20;99.90
9658;DHT22;4867;48.112;11.622;2023-01-28T00:13:41;-0.20;99.90
9658;DHT22;4867;48.112;11.622;2023-01-28T00:16:09;-0.20;99.90
9658;DHT22;4867;48.112;11.622;2023-01-28T00:18:37;-0.20;99.90
9658;DHT22;4867;48.112;11.622;2023-01-28T00:21:11;-0.20;99.90
9658;DHT22;4867;48.112;11.622;2023-01-28T00:23:40;-0.20;99.90
9658;DHT22;4867;48.112;11.622;2023-01-28T00:26:10;-0.20;99.90
9658;DHT22;4867;48.112;11.622;2023-01-28T00:28:42;-0.20;99.90
9658;DHT22;4867;48.112;11.622;2023-01-28T00:31:15;-0.30;99.90
9658;DHT22;4867;48.112;11.622;2023-01-28T00:33:44;-0.20;99.90
9658;DHT22;4867;48.112;11.622;2023-01-28T00:36:12;-0.20;99.90
9658;DHT22;4867;48.112;11.622;2023-01-28T00:38:41;-0.10;99.90
9658;DHT22;4867;48.112;11.622;2023-01-28T00:41:11;-0.10;99.90
9658;DHT22;4867;48.112;11.622;2023-01-28T00:43:39;-0.20;99.90
9658;DHT22;4867;48.112;11.622;2023-01-28T00:46:09;-0.20;99.90
9658;DHT22;4867;48.112;11.622;2023-01-28T00:48:38;-0.30;99.90
9658;DHT22;4867;48.112;11.622;2023-01-28T00:51:06;-0.30;99.90
9658;DHT22;4867;48.112;11.622;2023-01-28T00:53:34;-0.30;99.90
9658;DHT22;4867;48.112;11.622;2023-01-28T00:56:07;-0.30;99.90
9658;DHT22;4867;48.112;11.622;2023-01-28T00:58:34;-0.30;99.90
9658;DHT22;4867;48.112;11.622;2023-01-28T01:01:24;-0.30;99.90
9658;DHT22;4867;48.112;11.622;2023-01-28T01:03:53;-0.30;99.90
9658;DHT22;4867;48.112;11.622;2023-01-28T01:06:32;-0.30;99.90
9658;DHT22;4867;48.112;11.622;2023-01-28T01:09:02;-0.30;99.90
9658;DHT22;4867;48.112;11.622;2023-01-28T01:11:29;-0.40;99.90
9658;DHT22;4867;48.112;11.622;2023-01-28T01:13:58;-0.40;99.90
9658;DHT22;4867;48.112;11.622;2023-01-28T01:16:28;-0.30;99.90
9658;DHT22;4867;48.112;11.622;2023-01-28T01:18:55;-0.30;99.90
9658;DHT22;4867;48.112;11.622;2023-01-28T01:21:25;-0.30;99.90
9658;DHT22;4867;48.112;11.622;2023-01-28T01:23:53;-0.30;99.90
9658;DHT22;4867;48.112;11.622;2023-01-28T01:26:21;-0.30;99.90
9658;DHT22;4867;48.112;11.622;2023-01-28T01:28:50;-0.30;99.90
9658;DHT22;4867;48.112;11.622;2023-01-28T01:31:19;-0.30;99.90
9658;DHT22;4867;48.112;11.622;2023-01-28T01:33:48;-0.30;99.90
9658;DHT22;4867;48.112;11.622;2023-01-28T01:36:17;-0.30;99.90
9658;DHT22;4867;48.112;11.622;2023-01-28T01:38:46;-0.30;99.90
9658;DHT22;4867;48.112;11.622;2023-01-28T01:41:32;-0.30;99.90
9658;DHT22;4867;48.112;11.622;2023-01-28T01:44:01;-0.30;99.90
9658;DHT22;4867;48.112;11.622;2023-01-28T01:49:23;-0.30;99.90
9658;DHT22;4867;48.112;11.622;2023-01-28T01:52:07;-0.30;99.90
9658;DHT22;4867;48.112;11.622;2023-01-28T01:54:38;-0.20;99.90
9658;DHT22;4867;48.112;11.622;2023-01-28T01:57:09;-0.20;99.90
9658;DHT22;4867;48.112;11.622;2023-01-28T01:59:39;-0.20;99.90
9658;DHT22;4867;48.112;11.622;2023-01-28T02:02:09;-0.20;99.90
9658;DHT22;4867;48.112;11.622;2023-01-28T02:04:42;-0.20;99.90
9658;DHT22;4867;48.112;11.622;2023-01-28T02:07:15;-0.20;99.90
9658;DHT22;4867;48.112;11.622;2023-01-28T02:09:44;-0.20;99.90
9658;DHT22;4867;48.112;11.622;2023-01-28T02:12:15;-0.20;99.90
9658;DHT22;4867;48.112;11.622;2023-01-28T02:14:51;-0.20;99.90
9658;DHT22;4867;48.112;11.622;2023-01-28T02:17:20;-0.30;99.90
9658;DHT22;4867;48.112;11.622;2023-01-28T02:19:57;-0.30;99.90
9658;DHT22;4867;48.112;11.622;2023-01-28T02:27:54;-0.20;99.90
9658;DHT22;4867;48.112;11.622;2023-01-28T02:30:29;-0.20;99.90
9658;DHT22;4867;48.112;11.622;2023-01-28T02:33:01;-0.20;99.90
9658;DHT22;4867;48.112;11.622;2023-01-28T02:35:46;-0.20;99.90
9658;DHT22;4867;48.112;11.622;2023-01-28T02:38:19;-0.20;99.90
9658;DHT22;4867;48.112;11.622;2023-01-28T02:40:52;-0.20;99.90
9658;DHT22;4867;48.112;11.622;2023-01-28T02:43:37;-0.20;99.90
9658;DHT22;4867;48.112;11.622;2023-01-28T02:49:11;-0.20;99.90
9658;DHT22;4867;48.112;11.622;2023-01-28T02:55:31;-0.20;99.90
9658;DHT22;4867;48.112;11.622;2023-01-28T02:58:15;-0.20;99.90
9658;DHT22;4867;48.112;11.622;2023-01-28T03:07:07;-0.20;99.90
9658;DHT22;4867;48.112;11.622;2023-01-28T03:09:15;-0.30;99.90
9658;DHT22;4867;48.112;11.622;2023-01-28T03:12:04;-0.20;99.90
9658;DHT22;4867;48.112;11.622;2023-01-28T03:15:02;-0.20;99.90
9658;DHT22;4867;48.112;11.622;2023-01-28T03:21:12;-0.20;99.90
9658;DHT22;4867;48.112;11.622;2023-01-28T03:24:27;-0.10;99.90
9658;DHT22;4867;48.112;11.622;2023-01-28T03:27:27;-0.10;99.90
9658;DHT22;4867;48.112;11.622;2023-01-28T03:30:23;-0.10;99.90
9658;DHT22;4867;48.112;11.622;2023-01-28T03:33:21;-0.20;99.90
9658;DHT22;4867;48.112;11.622;2023-01-28T03:36:08;-0.20;99.90
9658;DHT22;4867;48.112;11.622;2023-01-28T03:38:54;-0.20;99.90
9658;DHT22;4867;48.112;11.622;2023-01-28T03:41:24;-0.20;99.90
9658;DHT22;4867;48.112;11.622;2023-01-28T03:43:54;-0.20;99.90
9658;DHT22;4867;48.112;11.622;2023-01-28T03:46:22;-0.20;99.90
9658;DHT22;4867;48.112;11.622;2023-01-28T03:48:49;-0.20;99.90
9658;DHT22;4867;48.112;11.622;2023-01-28T03:51:17;-0.20;99.90
9658;DHT22;4867;48.112;11.622;2023-01-28T03:53:44;-0.30;99.90
9658;DHT22;4867;48.112;11.622;2023-01-28T03:56:11;-0.30;99.90
9658;DHT22;4867;48.112;11.622;2023-01-28T03:58:45;-0.30;99.90
9658;DHT22;4867;48.112;11.622;2023-01-28T04:01:20;-0.20;99.90
9658;DHT22;4867;48.112;11.622;2023-01-28T04:03:47;-0.20;99.90
9658;DHT22;4867;48.112;11.622;2023-01-28T04:06:21;-0.20;99.90
9658;DHT22;4867;48.112;11.622;2023-01-28T04:08:58;-0.20;99.90
9658;DHT22;4867;48.112;11.622;2023-01-28T04:11:31;-0.20;99.90
9658;DHT22;4867;48.112;11.622;2023-01-28T04:14:01;-0.20;99.90
9658;DHT22;4867;48.112;11.622;2023-01-28T04:16:42;-0.20;99.90
9658;DHT22;4867;48.112;11.622;2023-01-28T04:19:10;-0.20;99.90
9658;DHT22;4867;48.112;11.622;2023-01-28T04:21:42;-0.20;99.90
9658;DHT22;4867;48.112;11.622;2023-01-28T04:24:09;-0.20;99.90
9658;DHT22;4867;48.112;11.622;2023-01-28T04:26:36;-0.20;99.90
9658;DHT22;4867;48.112;11.622;2023-01-28T04:29:04;-0.20;99.90
9658;DHT22;4867;48.112;11.622;2023-01-28T04:31:34;-0.20;99.90
9658;DHT22;4867;48.112;11.622;2023-01-28T04:34:22;-0.10;99.90
9658;DHT22;4867;48.112;11.622;2023-01-28T04:37:07;-0.20;99.90
9658;DHT22;4867;48.112;11.622;2023-01-28T04:39:44;-0.20;99.90
9658;DHT22;4867;48.112;11.622;2023-01-28T04:42:34;-0.20;99.90
9658;DHT22;4867;48.112;11.622;2023-01-28T04:45:10;-0.20;99.90
9658;DHT22;4867;48.112;11.622;2023-01-28T04:47:55;-0.20;99.90
9658;DHT22;4867;48.112;11.622;2023-01-28T04:50:41;-0.20;99.90
9658;DHT22;4867;48.112;11.622;2023-01-28T04:53:37;-0.10;99.90
9658;DHT22;4867;48.112;11.622;2023-01-28T04:56:23;-0.20;99.90
9658;DHT22;4867;48.112;11.622;2023-01-28T04:58:50;-0.20;99.90
9658;DHT22;4867;48.112;11.622;2023-01-28T05:01:18;-0.20;99.90
9658;DHT22;4867;48.112;11.622;2023-01-28T05:03:45;-0.20;99.90
9658;DHT22;4867;48.112;11.622;2023-01-28T05:06:20;-0.30;99.90
9658;DHT22;4867;48.112;11.622;2023-01-28T05:08:50;-0.30;99.90
9658;DHT22;4867;48.112;11.622;2023-01-28T05:11:17;-0.20;99.90
9658;DHT22;4867;48.112;11.622;2023-01-28T05:13:48;-0.20;99.90
9658;DHT22;4867;48.112;11.622;2023-01-28T05:16:17;-0.20;99.90
9658;DHT22;4867;48.112;11.622;2023-01-28T05:18:44;-0.20;99.90
9658;DHT22;4867;48.112;11.622;2023-01-28T05:21:16;-0.20;99.90
9658;DHT22;4867;48.112;11.622;2023-01-28T05:23:47;-0.20;99.90
9658;DHT22;4867;48.112;11.622;2023-01-28T05:26:14;-0.20;99.90
9658;DHT22;4867;48.112;11.622;2023-01-28T05:28:42;-0.20;99.90
9658;DHT22;4867;48.112;11.622;2023-01-28T05:31:10;-0.20;99.90
9658;DHT22;4867;48.112;11.622;2023-01-28T05:33:38;-0.20;99.90
9658;DHT22;4867;48.112;11.622;2023-01-28T05:36:08;-0.20;99.90
9658;DHT22;4867;48.112;11.622;2023-01-28T05:38:35;-0.30;99.90
9658;DHT22;4867;48.112;11.622;2023-01-28T05:41:03;-0.30;99.90
9658;DHT22;4867;48.112;11.622;2023-01-28T05:43:31;-0.30;99.90
9658;DHT22;4867;48.112;11.622;2023-01-28T05:46:24;-0.20;99.90
9658;DHT22;4867;48.112;11.622;2023-01-28T05:49:15;-0.30;99.90
9658;DHT22;4867;48.112;11.622;2023-01-28T05:52:15;-0.30;99.90
9658;DHT22;4867;48.112;11.622;2023-01-28T05:54:42;-0.30;99.90
9658;DHT22;4867;48.112;11.622;2023-01-28T05:57:11;-0.30;99.90
9658;DHT22;4867;48.112;11.622;2023-01-28T05:59:38;-0.30;99.90
9658;DHT22;4867;48.112;11.622;2023-01-28T06:02:05;-0.20;99.90
9658;DHT22;4867;48.112;11.622;2023-01-28T06:04:33;-0.20;99.90
9658;DHT22;4867;48.112;11.622;2023-01-28T06:07:00;-0.30;99.90
9658;DHT22;4867;48.112;11.622;2023-01-28T06:09:28;-0.20;99.90
9658;DHT22;4867;48.112;11.622;2023-01-28T06:11:55;-0.20;99.90
9658;DHT22;4867;48.112;11.622;2023-01-28T06:14:23;-0.20;99.90
9658;DHT22;4867;48.112;11.622;2023-01-28T06:17:05;-0.20;99.90
9658;DHT22;4867;48.112;11.622;2023-01-28T06:19:42;-0.20;99.90
9658;DHT22;4867;48.112;11.622;2023-01-28T06:22:11;-0.20;99.90
9658;DHT22;4867;48.112;11.622;2023-01-28T06:24:38;-0.20;99.90
9658;DHT22;4867;48.112;11.622;2023-01-28T06:27:05;-0.20;99.90
9658;DHT22;4867;48.112;11.622;2023-01-28T06:29:32;-0.20;99.90
9658;DHT22;4867;48.112;11.622;2023-01-28T06:32:00;-0.10;99.90
9658;DHT22;4867;48.112;11.622;2023-01-28T06:34:27;-0.10;99.90
9658;DHT22;4867;48.112;11.622;2023-01-28T06:36:54;-0.10;99.90
9658;DHT22;4867;48.112;11.622;2023-01-28T06:39:21;-0.10;99.90
9658;DHT22;4867;48.112;11.622;2023-01-28T06:41:49;-0.20;99.90
9658;DHT22;4867;48.112;11.622;2023-01-28T06:44:16;-0.20;99.90
9658;DHT22;4867;48.112;11.622;2023-01-28T06:46:44;-0.20;99.90
9658;DHT22;4867;48.112;11.622;2023-01-28T06:49:11;-0.10;99.90
9658;DHT22;4867;48.112;11.622;2023-01-28T06:51:38;-0.10;99.90
9658;DHT22;4867;48.112;11.622;2023-01-28T06:54:06;-0.10;99.90
9658;DHT22;4867;48.112;11.622;2023-01-28T06:56:33;-0.10;99.90
9658;DHT22;4867;48.112;11.622;2023-01-28T06:59:00;-0.10;99.90
9658;DHT22;4867;48.112;11.622;2023-01-28T07:01:27;-0.10;99.90
9658;DHT22;4867;48.112;11.622;2023-01-28T07:03:55;-0.10;99.90
9658;DHT22;4867;48.112;11.622;2023-01-28T07:06:22;-0.10;99.90
9658;DHT22;4867;48.112;11.622;2023-01-28T07:08:49;-0.10;99.90
9658;DHT22;4867;48.112;11.622;2023-01-28T07:11:17;-0.10;99.90
9658;DHT22;4867;48.112;11.622;2023-01-28T07:13:44;-0.10;99.90
9658;DHT22;4867;48.112;11.622;2023-01-28T07:16:12;-0.10;99.90
9658;DHT22;4867;48.112;11.622;2023-01-28T07:18:40;-0.10;99.90
9658;DHT22;4867;48.112;11.622;2023-01-28T07:21:07;-0.10;99.90
9658;DHT22;4867;48.112;11.622;2023-01-28T07:23:34;-0.10;99.90
9658;DHT22;4867;48.112;11.622;2023-01-28T07:26:03;-0.10;99.90
9658;DHT22;4867;48.112;11.622;2023-01-28T07:28:30;0.00;99.90
9658;DHT22;4867;48.112;11.622;2023-01-28T07:30:57;0.00;99.90
9658;DHT22;4867;48.112;11.622;2023-01-28T07:33:25;0.00;99.90
9658;DHT22;4867;48.112;11.622;2023-01-28T07:35:52;0.10;99.90
9658;DHT22;4867;48.112;11.622;2023-01-28T07:38:19;0.00;99.90
9658;DHT22;4867;48.112;11.622;2023-01-28T07:40:46;0.10;99.90
9658;DHT22;4867;48.112;11.622;2023-01-28T07:43:14;0.00;99.90
9658;DHT22;4867;48.112;11.622;2023-01-28T07:45:41;-0.10;99.90
9658;DHT22;4867;48.112;11.622;2023-01-28T07:48:11;-0.10;99.90
9658;DHT22;4867;48.112;11.622;2023-01-28T07:50:39;-0.20;99.90
9658;DHT22;4867;48.112;11.622;2023-01-28T07:53:09;-0.20;99.90
9658;DHT22;4867;48.112;11.622;2023-01-28T07:55:37;-0.10;99.90
9658;DHT22;4867;48.112;11.622;2023-01-28T07:58:06;-0.10;99.90
9658;DHT22;4867;48.112;11.622;2023-01-28T08:00:35;-0.10;99.90
9658;DHT22;4867;48.112;11.622;2023-01-28T08:03:10;-0.10;99.90
9658;DHT22;4867;48.112;11.622;2023-01-28T08:05:50;-0.20;99.90
9658;DHT22;4867;48.112;11.622;2023-01-28T08:08:18;-0.20;99.90
9658;DHT22;4867;48.112;11.622;2023-01-28T08:10:45;-0.20;99.90
9658;DHT22;4867;48.112;11.622;2023-01-28T08:13:14;-0.20;99.90
9658;DHT22;4867;48.112;11.622;2023-01-28T08:15:42;-0.20;99.90
9658;DHT22;4867;48.112;11.622;2023-01-28T08:18:12;-0.10;99.90
9658;DHT22;4867;48.112;11.622;2023-01-28T08:20:40;-0.10;99.90
9658;DHT22;4867;48.112;11.622;2023-01-28T08:23:15;-0.10;99.90
9658;DHT22;4867;48.112;11.622;2023-01-28T08:25:43;-0.10;99.90
9658;DHT22;4867;48.112;11.622;2023-01-28T08:28:11;0.00;99.90
9658;DHT22;4867;48.112;11.622;2023-01-28T08:30:39;0.00;99.90
9658;DHT22;4867;48.112;11.622;2023-01-28T08:33:08;0.00;99.90
9658;DHT22;4867;48.112;11.622;2023-01-28T08:35:35;-0.10;99.90
9658;DHT22;4867;48.112;11.622;2023-01-28T08:38:04;-0.10;99.90
9658;DHT22;4867;48.112;11.622;2023-01-28T08:40:32;0.00;99.90
9658;DHT22;4867;48.112;11.622;2023-01-28T08:42:59;0.10;99.90
9658;DHT22;4867;48.112;11.622;2023-01-28T08:45:27;0.10;99.90
9658;DHT22;4867;48.112;11.622;2023-01-28T08:48:05;0.20;99.90
9658;DHT22;4867;48.112;11.622;2023-01-28T08:50:34;0.30;99.90
9658;DHT22;4867;48.112;11.622;2023-01-28T08:53:04;0.90;99.90
9658;DHT22;4867;48.112;11.622;2023-01-28T08:55:33;0.40;99.90
9658;DHT22;4867;48.112;11.622;2023-01-28T08:58:05;0.30;99.90
9658;DHT22;4867;48.112;11.622;2023-01-28T09:00:34;0.40;99.90
9658;DHT22;4867;48.112;11.622;2023-01-28T09:03:02;0.40;99.90
9658;DHT22;4867;48.112;11.622;2023-01-28T09:05:33;0.40;99.90
9658;DHT22;4867;48.112;11.622;2023-01-28T09:08:05;0.50;99.90
9658;DHT22;4867;48.112;11.622;2023-01-28T09:10:33;0.50;99.90
9658;DHT22;4867;48.112;11.622;2023-01-28T09:13:08;0.70;99.90
9658;DHT22;4867;48.112;11.622;2023-01-28T09:15:35;0.70;99.90
9658;DHT22;4867;48.112;11.622;2023-01-28T09:18:04;0.80;99.90
9658;DHT22;4867;48.112;11.622;2023-01-28T09:20:32;0.80;99.90
9658;DHT22;4867;48.112;11.622;2023-01-28T09:23:00;0.80;99.90
9658;DHT22;4867;48.112;11.622;2023-01-28T09:25:28;0.80;99.90
9658;DHT22;4867;48.112;11.622;2023-01-28T09:27:56;0.90;99.90
9658;DHT22;4867;48.112;11.622;2023-01-28T09:30:24;0.90;99.90
9658;DHT22;4867;48.112;11.622;2023-01-28T09:32:52;1.00;99.90
9658;DHT22;4867;48.112;11.622;2023-01-28T09:35:20;1.00;99.90
9658;DHT22;4867;48.112;11.622;2023-01-28T09:37:47;1.00;99.90
9658;DHT22;4867;48.112;11.622;2023-01-28T09:40:23;1.00;99.90
9658;DHT22;4867;48.112;11.622;2023-01-28T09:45:47;1.00;99.90
9658;DHT22;4867;48.112;11.622;2023-01-28T09:48:18;1.10;99.90
9658;DHT22;4867;48.112;11.622;2023-01-28T09:50:53;1.20;99.90
9658;DHT22;4867;48.112;11.622;2023-01-28T09:53:31;1.30;99.90
9658;DHT22;4867;48.112;11.622;2023-01-28T09:56:05;1.40;99.90
9658;DHT22;4867;48.112;11.622;2023-01-28T09:58:35;1.50;99.90
9658;DHT22;4867;48.112;11.622;2023-01-28T10:03:57;1.60;99.90
9658;DHT22;4867;48.112;11.622;2023-01-28T10:08:59;1.80;99.90
9658;DHT22;4867;48.112;11.622;2023-01-28T10:14:35;1.90;99.90
9658;DHT22;4867;48.112;11.622;2023-01-28T10:19:52;2.00;99.90
9658;DHT22;4867;48.112;11.622;2023-01-28T10:22:29;2.10;99.90
9658;DHT22;4867;48.112;11.622;2023-01-28T10:25:02;2.20;99.90
9658;DHT22;4867;48.112;11.622;2023-01-28T10:27:35;2.30;99.90
9658;DHT22;4867;48.112;11.622;2023-01-28T10:30:30;2.40;99.90
9658;DHT22;4867;48.112;11.622;2023-01-28T10:33:28;2.50;99.90
9658;DHT22;4867;48.112;11.622;2023-01-28T10:35:50;2.50;99.90
9658;DHT22;4867;48.112;11.622;2023-01-28T10:38:21;2.50;99.90
9658;DHT22;4867;48.112;11.622;2023-01-28T10:40:49;2.50;99.90
9658;DHT22;4867;48.112;11.622;2023-01-28T10:43:22;2.50;99.90
9658;DHT22;4867;48.112;11.622;2023-01-28T10:46:12;2.40;99.90
9658;DHT22;4867;48.112;11.622;2023-01-28T10:48:47;2.50;99.90
9658;DHT22;4867;48.112;11.622;2023-01-28T10:51:30;2.60;99.90
9658;DHT22;4867;48.112;11.622;2023-01-28T10:53:57;2.70;99.90
9658;DHT22;4867;48.112;11.622;2023-01-28T10:56:30;2.60;99.90
9658;DHT22;4867;48.112;11.622;2023-01-28T11:01:41;2.60;99.90
9658;DHT22;4867;48.112;11.622;2023-01-28T11:04:26;2.70;99.90
9658;DHT22;4867;48.112;11.622;2023-01-28T11:07:04;2.60;99.90
9658;DHT22;4867;48.112;11.622;2023-01-28T11:09:34;2.50;99.90
9658;DHT22;4867;48.112;11.622;2023-01-28T11:12:19;2.30;99.90
9658;DHT22;4867;48.112;11.622;2023-01-28T11:17:23;2.20;99.90
9658;DHT22;4867;48.112;11.622;2023-01-28T11:19:57;2.20;99.90
9658;DHT22;4867;48.112;11.622;2023-01-28T11:22:32;2.20;99.90
9658;DHT22;4867;48.112;11.622;2023-01-28T11:25:05;2.30;99.90
9658;DHT22;4867;48.112;11.622;2023-01-28T11:27:39;2.30;99.90
9658;DHT22;4867;48.112;11.622;2023-01-28T11:30:23;2.30;99.90
9658;DHT22;4867;48.112;11.622;2023-01-28T11:35:30;2.30;99.90
9658;DHT22;4867;48.112;11.622;2023-01-28T11:37:58;2.40;99.90
9658;DHT22;4867;48.112;11.622;2023-01-28T11:40:27;2.40;99.90
9658;DHT22;4867;48.112;11.622;2023-01-28T11:42:55;2.60;99.90
9658;DHT22;4867;48.112;11.622;2023-01-28T11:45:38;2.50;99.90
9658;DHT22;4867;48.112;11.622;2023-01-28T11:48:18;2.50;99.90
9658;DHT22;4867;48.112;11.622;2023-01-28T11:50:56;2.60;99.90
9658;DHT22;4867;48.112;11.622;2023-01-28T11:56:26;2.60;99.90
9658;DHT22;4867;48.112;11.622;2023-01-28T11:59:21;2.60;99.90
9658;DHT22;4867;48.112;11.622;2023-01-28T12:07:25;2.70;99.90
9658;DHT22;4867;48.112;11.622;2023-01-28T12:10:13;2.70;99.90
9658;DHT22;4867;48.112;11.622;2023-01-28T12:22:03;2.60;99.90
9658;DHT22;4867;48.112;11.622;2023-01-28T12:25:03;2.70;99.90
9658;DHT22;4867;48.112;11.622;2023-01-28T12:41:49;2.80;99.90
9658;DHT22;4867;48.112;11.622;2023-01-28T12:44:29;2.80;99.90
9658;DHT22;4867;48.112;11.622;2023-01-28T12:47:06;2.80;99.90
9658;DHT22;4867;48.112;11.622;2023-01-28T12:49:44;2.80;99.90
9658;DHT22;4867;48.112;11.622;2023-01-28T12:52:23;2.80;99.90
9658;DHT22;4867;48.112;11.622;2023-01-28T12:57:29;2.70;99.90
9658;DHT22;4867;48.112;11.622;2023-01-28T13:00:02;2.80;99.90
9658;DHT22;4867;48.112;11.622;2023-01-28T13:02:37;2.80;99.90
9658;DHT22;4867;48.112;11.622;2023-01-28T13:05:16;2.80;99.90
9658;DHT22;4867;48.112;11.622;2023-01-28T13:07:56;2.70;99.90
9658;DHT22;4867;48.112;11.622;2023-01-28T13:10:29;2.70;99.90
9658;DHT22;4867;48.112;11.622;2023-01-28T13:13:00;2.70;99.90
9658;DHT22;4867;48.112;11.622;2023-01-28T13:15:28;2.70;99.90
9658;DHT22;4867;48.112;11.622;2023-01-28T13:17:57;2.60;99.90
9658;DHT22;4867;48.112;11.622;2023-01-28T13:29:17;2.50;99.90
9658;DHT22;4867;48.112;11.622;2023-01-28T13:31:47;2.40;99.90
9658;DHT22;4867;48.112;11.622;2023-01-28T13:34:34;2.40;99.90
9658;DHT22;4867;48.112;11.622;2023-01-28T13:37:04;2.40;99.90
9658;DHT22;4867;48.112;11.622;2023-01-28T13:39:34;2.40;99.90
9658;DHT22;4867;48.112;11.622;2023-01-28T13:42:21;2.30;99.90
9658;DHT22;4867;48.112;11.622;2023-01-28T13:44:49;2.30;99.90
9658;DHT22;4867;48.112;11.622;2023-01-28T13:47:24;2.20;99.90
9658;DHT22;4867;48.112;11.622;2023-01-28T13:50:03;2.20;99.90
9658;DHT22;4867;48.112;11.622;2023-01-28T13:52:58;2.10;99.90
9658;DHT22;4867;48.112;11.622;2023-01-28T13:55:37;2.00;99.90
9658;DHT22;4867;48.112;11.622;2023-01-28T13:58:24;1.90;99.90
9658;DHT22;4867;48.112;11.622;2023-01-28T14:01:12;1.90;99.90
9658;DHT22;4867;48.112;11.622;2023-01-28T14:12:04;1.60;99.90
9658;DHT22;4867;48.112;11.622;2023-01-28T14:17:51;1.60;99.90
9658;DHT22;4867;48.112;11.622;2023-01-28T14:20:24;1.60;99.90
9658;DHT22;4867;48.112;11.622;2023-01-28T14:23:00;1.60;99.90
9658;DHT22;4867;48.112;11.622;2023-01-28T14:25:41;1.70;99.90
9658;DHT22;4867;48.112;11.622;2023-01-28T14:31:08;1.70;99.90
9658;DHT22;4867;48.112;11.622;2023-01-28T14:33:37;1.70;99.90
9658;DHT22;4867;48.112;11.622;2023-01-28T14:36:05;1.70;99.90
9658;DHT22;4867;48.112;11.622;2023-01-28T14:38:38;1.70;99.90
9658;DHT22;4867;48.112;11.622;2023-01-28T14:41:07;1.80;99.90
9658;DHT22;4867;48.112;11.622;2023-01-28T14:43:35;1.80;99.90
9658;DHT22;4867;48.112;11.622;2023-01-28T14:52:07;1.70;99.90
9658;DHT22;4867;48.112;11.622;2023-01-28T14:54:47;1.70;99.90
9658;DHT22;4867;48.112;11.622;2023-01-28T14:59:55;1.80;99.90
9658;DHT22;4867;48.112;11.622;2023-01-28T15:02:29;2.00;99.90
9658;DHT22;4867;48.112;11.622;2023-01-28T15:05:19;1.80;99.90
9658;DHT22;4867;48.112;11.622;2023-01-28T15:07:47;1.80;99.90
9658;DHT22;4867;48.112;11.622;2023-01-28T15:10:24;1.80;99.90
9658;DHT22;4867;48.112;11.622;2023-01-28T15:12:59;1.70;99.90
9658;DHT22;4867;48.112;11.622;2023-01-28T15:15:36;1.70;99.90
9658;DHT22;4867;48.112;11.622;2023-01-28T15:18:15;1.70;99.90
9658;DHT22;4867;48.112;11.622;2023-01-28T15:20:47;1.70;99.90
9658;DHT22;4867;48.112;11.622;2023-01-28T15:23:24;1.60;99.90
9658;DHT22;4867;48.112;11.622;2023-01-28T15:25:52;1.60;99.90
9658;DHT22;4867;48.112;11.622;2023-01-28T15:28:30;1.60;99.90
9658;DHT22;4867;48.112;11.622;2023-01-28T15:30:58;1.60;99.90
9658;DHT22;4867;48.112;11.622;2023-01-28T15:33:26;1.60;99.90
9658;DHT22;4867;48.112;11.622;2023-01-28T15:35:56;1.60;99.90
9658;DHT22;4867;48.112;11.622;2023-01-28T15:38:26;1.50;99.90
9658;DHT22;4867;48.112;11.622;2023-01-28T15:41:01;1.50;99.90
9658;DHT22;4867;48.112;11.622;2023-01-28T15:43:34;1.40;99.90
9658;DHT22;4867;48.112;11.622;2023-01-28T15:46:03;1.50;99.90
9658;DHT22;4867;48.112;11.622;2023-01-28T15:48:35;1.60;99.90
9658;DHT22;4867;48.112;11.622;2023-01-28T15:51:05;1.50;99.90
9658;DHT22;4867;48.112;11.622;2023-01-28T15:53:45;1.50;99.90
9658;DHT22;4867;48.112;11.622;2023-01-28T15:56:14;1.50;99.90
9658;DHT22;4867;48.112;11.622;2023-01-28T15:58:42;1.60;99.90
9658;DHT22;4867;48.112;11.622;2023-01-28T16:03:37;1.60;99.90
9658;DHT22;4867;48.112;11.622;2023-01-28T16:06:16;1.60;99.90
9658;DHT22;4867;48.112;11.622;2023-01-28T16:08:50;1.60;99.90
9658;DHT22;4867;48.112;11.622;2023-01-28T16:11:29;1.60;99.90
9658;DHT22;4867;48.112;11.622;2023-01-28T16:13:58;1.60;99.90
9658;DHT22;4867;48.112;11.622;2023-01-28T16:16:36;1.60;99.90
9658;DHT22;4867;48.112;11.622;2023-01-28T16:19:05;1.60;99.90
9658;DHT22;4867;48.112;11.622;2023-01-28T16:21:42;1.60;99.90
9658;DHT22;4867;48.112;11.622;2023-01-28T16:24:23;1.50;99.90
9658;DHT22;4867;48.112;11.622;2023-01-28T16:27:05;1.60;99.90
9658;DHT22;4867;48.112;11.622;2023-01-28T16:29:35;1.60;99.90
9658;DHT22;4867;48.112;11.622;2023-01-28T16:32:02;1.60;99.90
9658;DHT22;4867;48.112;11.622;2023-01-28T16:34:30;1.50;99.90
9658;DHT22;4867;48.112;11.622;2023-01-28T16:36:58;1.50;99.90
9658;DHT22;4867;48.112;11.622;2023-01-28T16:39:26;1.50;99.90
9658;DHT22;4867;48.112;11.622;2023-01-28T16:41:53;1.50;99.90
9658;DHT22;4867;48.112;11.622;2023-01-28T16:44:22;1.50;99.90
9658;DHT22;4867;48.112;11.622;2023-01-28T16:46:50;1.50;99.90
9658;DHT22;4867;48.112;11.622;2023-01-28T16:49:17;1.50;99.90
9658;DHT22;4867;48.112;11.622;2023-01-28T16:51:44;1.50;99.90
9658;DHT22;4867;48.112;11.622;2023-01-28T16:54:13;1.40;99.90
9658;DHT22;4867;48.112;11.622;2023-01-28T16:56:42;1.40;99.90
9658;DHT22;4867;48.112;11.622;2023-01-28T16:59:14;1.40;99.90
9658;DHT22;4867;48.112;11.622;2023-01-28T17:01:43;1.40;99.90
9658;DHT22;4867;48.112;11.622;2023-01-28T17:04:10;1.30;99.90
9658;DHT22;4867;48.112;11.622;2023-01-28T17:06:40;1.30;99.90
9658;DHT22;4867;48.112;11.622;2023-01-28T17:09:10;1.30;99.90
9658;DHT22;4867;48.112;11.622;2023-01-28T17:11:38;1.20;99.90
9658;DHT22;4867;48.112;11.622;2023-01-28T17:14:07;1.10;99.90
9658;DHT22;4867;48.112;11.622;2023-01-28T17:16:34;1.10;99.90
9658;DHT22;4867;48.112;11.622;2023-01-28T17:19:02;1.00;99.90
9658;DHT22;4867;48.112;11.622;2023-01-28T17:21:29;1.10;99.90
9658;DHT22;4867;48.112;11.622;2023-01-28T17:23:56;1.10;99.90
9658;DHT22;4867;48.112;11.622;2023-01-28T17:26:25;1.10;99.90
9658;DHT22;4867;48.112;11.622;2023-01-28T17:28:55;1.10;99.90
9658;DHT22;4867;48.112;11.622;2023-01-28T17:31:22;1.10;99.90
9658;DHT22;4867;48.112;11.622;2023-01-28T17:33:55;1.10;99.90
9658;DHT22;4867;48.112;11.622;2023-01-28T17:36:24;1.10;99.90
9658;DHT22;4867;48.112;11.622;2023-01-28T17:38:52;1.10;99.90
9658;DHT22;4867;48.112;11.622;2023-01-28T17:41:20;1.10;99.90
9658;DHT22;4867;48.112;11.622;2023-01-28T17:43:51;1.00;99.90
9658;DHT22;4867;48.112;11.622;2023-01-28T17:46:21;1.10;99.90
9658;DHT22;4867;48.112;11.622;2023-01-28T17:48:48;1.10;99.90
9658;DHT22;4867;48.112;11.622;2023-01-28T17:51:16;1.10;99.90
9658;DHT22;4867;48.112;11.622;2023-01-28T17:53:50;1.10;99.90
9658;DHT22;4867;48.112;11.622;2023-01-28T17:56:20;1.10;99.90
9658;DHT22;4867;48.112;11.622;2023-01-28T17:58:51;1.10;99.90
9658;DHT22;4867;48.112;11.622;2023-01-28T18:01:20;1.10;99.90
9658;DHT22;4867;48.112;11.622;2023-01-28T18:03:47;1.10;99.90
9658;DHT22;4867;48.112;11.622;2023-01-28T18:06:15;1.10;99.90
9658;DHT22;4867;48.112;11.622;2023-01-28T18:08:42;1.10;99.90
9658;DHT22;4867;48.112;11.622;2023-01-28T18:11:11;1.20;99.90
9658;DHT22;4867;48.112;11.622;2023-01-28T18:13:40;1.20;99.90
9658;DHT22;4867;48.112;11.622;2023-01-28T18:16:11;1.20;99.90
9658;DHT22;4867;48.112;11.622;2023-01-28T18:18:41;1.20;99.90
9658;DHT22;4867;48.112;11.622;2023-01-28T18:21:35;1.20;99.90
9658;DHT22;4867;48.112;11.622;2023-01-28T18:24:19;1.30;99.90